Time;durP1;ratioP1;P1;durP2;ratioP2;P2;SDS_P1;SDS_P2;PMS_P1;PMS_P2;Temp;Humidity;BMP_temperature;BMP_pressure;BME280_temperature;BME280_humidity;BME280_pressure;Samples;Min_cycle;Max_cycle;Signal;HPM_P1;HPM_P2
2023/04/05 00:01:28;;;;;;;15.88;11.02;;;-3.30;98.00;;;;;;5080535;28;20031;-67
2023/04/05 00:03:56;;;;;;;18.80;10.73;;;-3.40;97.80;;;;;;5093331;28;20028;-65
2023/04/05 00:06:25;;;;;;;17.75;11.18;;;-3.30;97.50;;;;;;5099537;28;20425;-65
2023/04/05 00:08:54;;;;;;;16.52;9.93;;;-3.30;97.80;;;;;;5085068;28;20060;-65
2023/04/05 00:11:21;;;;;;;19.20;11.82;;;-3.30;97.50;;;;;;5078784;28;20476;-65
2023/04/05 00:13:47;;;;;;;16.83;10.10;;;-3.20;98.00;;;;;;5077444;28;20028;-65
2023/04/05 00:16:15;;;;;;;17.27;10.23;;;-3.20;97.60;;;;;;5081918;28;20115;-66
2023/04/05 00:18:48;;;;;;;14.98;9.77;;;-3.10;98.00;;;;;;5085325;28;20037;-66
2023/04/05 00:21:15;;;;;;;22.33;11.10;;;-3.10;98.00;;;;;;5085841;28;20115;-66
2023/04/05 00:23:43;;;;;;;13.55;9.07;;;-3.10;98.00;;;;;;5080301;28;20020;-65
2023/04/05 00:26:10;;;;;;;13.98;9.27;;;-3.00;98.00;;;;;;5095295;28;20028;-66
2023/04/05 00:28:35;;;;;;;13.98;9.55;;;-3.00;98.00;;;;;;5090846;28;20059;-65
2023/04/05 00:31:01;;;;;;;12.98;8.27;;;-2.90;98.00;;;;;;5098377;28;20066;-65
2023/04/05 00:33:26;;;;;;;13.77;8.85;;;-2.80;98.00;;;;;;5082268;28;20333;-65
2023/04/05 00:35:52;;;;;;;17.38;9.52;;;-2.70;98.00;;;;;;5081895;28;20039;-66
2023/04/05 00:38:17;;;;;;;15.00;10.35;;;-2.60;98.00;;;;;;5084017;28;20110;-65
2023/04/05 00:40:43;;;;;;;15.07;9.55;;;-2.60;98.00;;;;;;5095017;28;20047;-66
2023/04/05 00:43:08;;;;;;;16.48;10.23;;;-2.50;98.00;;;;;;5088006;28;20020;-66
2023/04/05 00:45:34;;;;;;;14.38;8.75;;;-2.40;98.00;;;;;;5088225;28;20072;-65
2023/04/05 00:48:00;;;;;;;14.93;9.35;;;-2.40;98.00;;;;;;5088696;28;20020;-66
2023/04/05 00:50:29;;;;;;;13.15;8.63;;;-2.30;97.80;;;;;;5084375;28;20374;-66
2023/04/05 00:52:57;;;;;;;14.02;9.80;;;-2.30;97.80;;;;;;5091913;28;20024;-65
2023/04/05 00:55:22;;;;;;;15.60;8.48;;;-2.30;97.50;;;;;;5077064;28;20550;-65
2023/04/05 00:57:48;;;;;;;13.15;8.93;;;-2.30;97.90;;;;;;5077135;28;20040;-65
2023/04/05 01:00:15;;;;;;;13.77;9.15;;;-2.40;98.00;;;;;;5077276;28;20023;-65
2023/04/05 01:02:48;;;;;;;15.05;10.20;;;-2.40;98.00;;;;;;5077473;28;20113;-65
2023/04/05 01:05:45;;;;;;;16.02;9.93;;;-2.50;97.80;;;;;;5091289;28;20042;-64
2023/04/05 01:08:25;;;;;;;18.58;11.15;;;-2.60;97.60;;;;;;5083946;28;20719;-64
2023/04/05 01:10:55;;;;;;;15.90;10.50;;;-2.60;97.60;;;;;;5097774;28;20032;-64
2023/04/05 01:13:24;;;;;;;15.35;10.05;;;-2.70;97.80;;;;;;5095427;28;20325;-64
2023/04/05 01:15:49;;;;;;;16.27;10.85;;;-2.80;97.80;;;;;;5098089;28;20158;-67
2023/04/05 01:18:15;;;;;;;18.35;11.65;;;-2.80;98.00;;;;;;5086255;28;20123;-66
2023/04/05 01:20:52;;;;;;;19.48;11.73;;;-2.80;97.70;;;;;;5076944;28;20481;-65
2023/04/05 01:23:43;;;;;;;15.98;10.35;;;-2.70;97.60;;;;;;5084710;28;20050;-65
2023/04/05 01:26:27;;;;;;;15.90;10.98;;;-2.70;97.80;;;;;;5096030;28;20030;-65
2023/04/05 01:29:09;;;;;;;;;;;-2.80;97.90;;;;;;5093150;28;20047;-65
2023/04/05 01:31:48;;;;;;;21.08;10.75;;;-2.90;98.00;;;;;;5087438;28;19915;-65
2023/04/05 01:34:26;;;;;;;17.75;10.80;;;-3.00;98.00;;;;;;5076942;28;20116;-65
2023/04/05 01:37:00;;;;;;;19.23;10.93;;;-3.10;98.00;;;;;;5088082;28;20017;-65
2023/04/05 01:39:27;;;;;;;17.38;10.25;;;-3.20;98.00;;;;;;5086996;28;20052;-65
2023/04/05 01:41:58;;;;;;;19.20;11.45;;;-3.20;98.00;;;;;;5093119;28;20024;-65
2023/04/05 01:44:24;;;;;;;15.23;9.95;;;-3.20;98.00;;;;;;5081685;28;20282;-65
2023/04/05 01:46:49;;;;;;;16.08;10.57;;;-3.20;98.00;;;;;;5089853;28;20043;-65
2023/04/05 01:49:15;;;;;;;14.38;9.05;;;-3.20;98.00;;;;;;5075564;28;20024;-65
2023/04/05 01:51:41;;;;;;;17.15;10.07;;;-3.30;97.90;;;;;;5085795;28;20032;-65
2023/04/05 01:54:07;;;;;;;15.85;9.75;;;-3.20;98.00;;;;;;5086532;28;20032;-65
2023/04/05 01:56:33;;;;;;;16.55;10.95;;;-3.20;98.00;;;;;;5087905;28;20017;-65
2023/04/05 01:58:59;;;;;;;16.88;11.82;;;-3.10;98.00;;;;;;5075758;28;20044;-66
2023/04/05 02:01:25;;;;;;;18.30;12.02;;;-3.10;98.00;;;;;;5069071;28;20616;-66
2023/04/05 02:03:50;;;;;;;19.92;11.75;;;-3.20;98.00;;;;;;5070822;28;20039;-66
2023/04/05 02:06:16;;;;;;;22.88;12.18;;;-3.20;98.00;;;;;;5070524;28;20040;-65
2023/04/05 02:08:41;;;;;;;18.83;10.95;;;-3.20;98.00;;;;;;5069626;28;20116;-66
2023/04/05 02:11:07;;;;;;;18.67;11.43;;;-3.20;98.00;;;;;;5073498;28;20144;-65
2023/04/05 02:13:32;;;;;;;19.42;12.55;;;-3.10;98.00;;;;;;5073837;28;20027;-65
2023/04/05 02:15:58;;;;;;;18.95;12.35;;;-3.10;98.00;;;;;;5079987;28;20039;-65
2023/04/05 02:18:28;;;;;;;17.55;11.60;;;-3.10;98.00;;;;;;5082711;28;20081;-66
2023/04/05 02:21:03;;;;;;;16.83;11.05;;;-3.10;98.00;;;;;;5080574;28;20170;-66
2023/04/05 02:23:30;;;;;;;15.70;11.43;;;-3.10;98.00;;;;;;5085369;28;20079;-65
2023/04/05 02:25:56;;;;;;;17.42;11.88;;;-3.10;98.00;;;;;;5082480;28;20056;-65
2023/04/05 02:28:22;;;;;;;15.38;10.93;;;-3.10;98.00;;;;;;5074104;28;20119;-66
2023/04/05 02:30:47;;;;;;;13.90;10.25;;;-3.20;98.00;;;;;;5076516;28;20100;-65
2023/04/05 02:33:13;;;;;;;16.83;10.55;;;-3.20;98.00;;;;;;5084715;28;20027;-66
2023/04/05 02:35:38;;;;;;;13.13;9.43;;;-3.20;98.00;;;;;;5078652;28;20025;-66
2023/04/05 02:38:04;;;;;;;18.75;11.35;;;-3.10;98.00;;;;;;5080665;28;20032;-65
2023/04/05 02:40:30;;;;;;;24.20;14.13;;;-3.20;98.00;;;;;;5086650;28;20084;-65
2023/04/05 02:42:56;;;;;;;16.38;11.23;;;-3.30;98.00;;;;;;5084293;28;20047;-66
2023/04/05 02:45:22;;;;;;;20.42;13.80;;;-3.30;98.00;;;;;;5074638;28;20094;-66
2023/04/05 02:47:47;;;;;;;22.83;13.82;;;-3.40;98.00;;;;;;5081825;28;20024;-65
2023/04/05 02:50:13;;;;;;;20.33;13.18;;;-3.40;98.00;;;;;;5086853;28;20157;-66
2023/04/05 02:52:39;;;;;;;19.50;12.45;;;-3.50;98.00;;;;;;5082928;28;20380;-65
2023/04/05 02:55:05;;;;;;;19.17;12.20;;;-3.40;98.00;;;;;;5081126;28;20020;-65
2023/04/05 02:57:31;;;;;;;22.75;13.80;;;-3.40;98.00;;;;;;5084598;28;20055;-66
2023/04/05 02:59:56;;;;;;;17.65;11.65;;;-3.40;98.00;;;;;;5078177;28;20099;-66
2023/04/05 03:02:22;;;;;;;18.92;12.73;;;-3.50;98.00;;;;;;5083270;28;20013;-67
2023/04/05 03:04:51;;;;;;;19.88;12.88;;;-3.50;98.00;;;;;;5083714;28;20100;-64
2023/04/05 03:07:17;;;;;;;17.33;11.57;;;-3.60;98.00;;;;;;5086035;28;20031;-66
2023/04/05 03:09:45;;;;;;;17.35;11.43;;;-3.50;98.00;;;;;;5082573;28;20095;-65
2023/04/05 03:12:14;;;;;;;20.35;12.00;;;-3.60;98.00;;;;;;5077416;28;20290;-66
2023/04/05 03:14:40;;;;;;;20.17;11.23;;;-3.50;98.00;;;;;;5081063;28;20024;-65
2023/04/05 03:17:05;;;;;;;17.35;11.70;;;-3.60;98.00;;;;;;5093330;28;20112;-65
2023/04/05 03:19:31;;;;;;;17.83;12.57;;;-3.60;98.00;;;;;;5086926;28;20032;-65
2023/04/05 03:21:57;;;;;;;16.10;10.77;;;-3.70;98.00;;;;;;5083412;28;20447;-67
2023/04/05 03:24:23;;;;;;;17.63;11.10;;;-3.80;98.00;;;;;;5092871;28;20038;-65
2023/04/05 03:26:49;;;;;;;14.85;10.63;;;-3.70;98.00;;;;;;5091852;28;20027;-65
2023/04/05 03:29:15;;;;;;;16.83;10.82;;;-3.80;98.00;;;;;;5085743;28;20099;-65
2023/04/05 03:31:41;;;;;;;18.30;10.93;;;-3.90;98.00;;;;;;5094961;28;20451;-65
2023/04/05 03:34:06;;;;;;;14.70;10.65;;;-4.00;98.00;;;;;;5083692;28;20055;-65
2023/04/05 03:36:41;;;;;;;19.48;12.90;;;-4.00;98.00;;;;;;5084844;28;20029;-65
2023/04/05 03:39:13;;;;;;;19.15;11.30;;;-4.00;98.00;;;;;;5100026;28;20493;-65
2023/04/05 03:41:39;;;;;;;17.25;10.73;;;-4.00;98.00;;;;;;5097684;28;20020;-65
2023/04/05 03:44:06;;;;;;;17.02;10.68;;;-4.10;98.00;;;;;;5094690;28;20526;-65
2023/04/05 03:46:32;;;;;;;20.13;10.02;;;-4.10;98.00;;;;;;5081610;28;20048;-65
2023/04/05 03:48:59;;;;;;;15.85;9.50;;;-4.00;98.00;;;;;;5082937;28;20055;-65
2023/04/05 03:51:26;;;;;;;17.95;11.40;;;-3.90;98.00;;;;;;5091519;28;20024;-64
2023/04/05 03:53:51;;;;;;;15.80;11.30;;;-3.90;98.00;;;;;;5095270;28;20039;-64
2023/04/05 03:56:17;;;;;;;15.90;11.02;;;-4.00;98.00;;;;;;5087251;28;20032;-65
2023/04/05 03:58:43;;;;;;;18.83;11.80;;;-4.10;98.00;;;;;;5083092;28;20333;-64
2023/04/05 04:01:09;;;;;;;15.43;10.07;;;-4.10;98.00;;;;;;5083900;28;20020;-64
2023/04/05 04:03:36;;;;;;;14.65;9.73;;;-4.10;98.00;;;;;;5086288;28;20059;-64
2023/04/05 04:06:05;;;;;;;18.63;10.68;;;-4.10;98.00;;;;;;5078639;28;20099;-64
2023/04/05 04:08:31;;;;;;;17.55;10.85;;;-4.10;98.00;;;;;;5073752;28;20020;-64
2023/04/05 04:10:57;;;;;;;15.80;10.95;;;-4.20;98.00;;;;;;5078644;28;20097;-65
2023/04/05 04:13:22;;;;;;;14.80;10.57;;;-4.20;97.90;;;;;;5086200;28;20418;-66
2023/04/05 04:15:51;;;;;;;15.13;10.27;;;-4.10;98.00;;;;;;5089974;28;20037;-65
2023/04/05 04:18:16;;;;;;;15.32;10.75;;;-4.10;98.00;;;;;;5089766;28;20032;-65
2023/04/05 04:20:42;;;;;;;14.98;10.00;;;-4.10;98.00;;;;;;5090170;28;20325;-65
2023/04/05 04:23:09;;;;;;;15.48;11.70;;;-4.10;98.00;;;;;;5079248;28;20028;-64
2023/04/05 04:25:35;;;;;;;17.70;10.75;;;-4.10;98.00;;;;;;5085811;28;20025;-65
2023/04/05 04:28:02;;;;;;;16.63;10.85;;;-4.10;98.00;;;;;;5077351;28;20052;-65
2023/04/05 04:30:28;;;;;;;14.45;11.20;;;-4.00;98.00;;;;;;5092998;28;20149;-64
2023/04/05 04:32:54;;;;;;;17.85;11.95;;;-4.00;98.00;;;;;;5091622;28;20024;-64
2023/04/05 04:35:30;;;;;;;18.40;11.80;;;-4.00;98.00;;;;;;5083283;28;20031;-65
2023/04/05 04:38:01;;;;;;;17.42;10.98;;;-3.90;98.00;;;;;;5098722;28;20031;-65
2023/04/05 04:40:28;;;;;;;13.45;9.93;;;-3.90;98.00;;;;;;5077263;28;20085;-64
2023/04/05 04:42:57;;;;;;;18.73;11.00;;;-3.80;98.00;;;;;;5094213;28;20461;-64
2023/04/05 04:45:23;;;;;;;13.52;10.20;;;-3.90;98.00;;;;;;5083030;28;20035;-66
2023/04/05 04:47:52;;;;;;;16.80;11.15;;;-4.00;98.00;;;;;;5081878;28;20031;-65
2023/04/05 04:50:19;;;;;;;15.05;10.52;;;-4.00;98.00;;;;;;5091638;28;20095;-64
2023/04/05 04:52:45;;;;;;;19.73;12.90;;;-4.00;98.00;;;;;;5088843;28;20100;-65
2023/04/05 04:55:13;;;;;;;20.42;13.65;;;-4.10;98.00;;;;;;5084953;28;20028;-64
2023/04/05 04:57:42;;;;;;;24.65;14.35;;;-4.10;98.00;;;;;;5084510;28;20063;-64
2023/04/05 05:00:15;;;;;;;17.40;11.85;;;-4.20;98.00;;;;;;5076733;28;20024;-64
2023/04/05 05:02:42;;;;;;;20.37;11.80;;;-4.30;98.00;;;;;;5079602;28;20017;-65
2023/04/05 05:05:08;;;;;;;20.65;11.88;;;-4.40;98.00;;;;;;5079657;28;20016;-65
2023/04/05 05:07:35;;;;;;;18.73;11.80;;;-4.50;98.00;;;;;;5081909;28;20094;-65
2023/04/05 05:10:01;;;;;;;16.77;11.00;;;-4.50;98.00;;;;;;5083853;28;20028;-65
2023/04/05 05:12:28;;;;;;;17.40;11.18;;;-4.50;98.00;;;;;;5080953;28;20420;-64
2023/04/05 05:14:54;;;;;;;21.33;12.35;;;-4.60;97.90;;;;;;5083510;28;20031;-65
2023/04/05 05:17:19;;;;;;;18.63;11.63;;;-4.50;97.70;;;;;;5097755;28;20027;-64
2023/04/05 05:19:45;;;;;;;20.30;13.05;;;-4.30;98.00;;;;;;5085754;28;20106;-65
2023/04/05 05:22:10;;;;;;;19.98;12.65;;;-4.20;98.00;;;;;;5078160;28;20437;-65
2023/04/05 05:24:36;;;;;;;22.83;12.40;;;-4.20;98.00;;;;;;5077797;28;20410;-65
2023/04/05 05:27:02;;;;;;;39.92;17.58;;;-4.20;98.00;;;;;;5077610;28;20310;-64
2023/04/05 05:29:27;;;;;;;54.30;21.23;;;-4.20;98.00;;;;;;5077750;28;20117;-64
2023/04/05 05:31:54;;;;;;;34.88;17.58;;;-4.30;98.00;;;;;;5077478;28;20108;-65
2023/04/05 05:34:19;;;;;;;26.75;14.95;;;-4.30;98.00;;;;;;5076944;28;20294;-64
2023/04/05 05:36:45;;;;;;;27.13;14.80;;;-4.30;98.00;;;;;;5093740;28;20039;-65
2023/04/05 05:39:11;;;;;;;25.70;15.70;;;-4.30;98.00;;;;;;5085521;28;20043;-65
2023/04/05 05:41:36;;;;;;;25.63;16.50;;;-4.20;98.00;;;;;;5089603;28;20028;-64
2023/04/05 05:44:02;;;;;;;29.38;20.67;;;-4.10;98.00;;;;;;5081069;28;20104;-64
2023/04/05 05:46:27;;;;;;;29.98;18.13;;;-4.10;98.00;;;;;;5093114;28;20063;-64
2023/04/05 05:48:53;;;;;;;22.88;15.88;;;-4.10;98.00;;;;;;5097337;28;20052;-64
2023/04/05 05:51:19;;;;;;;21.20;13.82;;;-4.00;98.00;;;;;;5102523;28;20028;-64
2023/04/05 05:53:46;;;;;;;15.75;11.57;;;-3.90;98.00;;;;;;5083334;28;20059;-64
2023/04/05 05:56:11;;;;;;;21.55;14.18;;;-3.70;98.00;;;;;;5084870;28;20409;-65
2023/04/05 05:58:38;;;;;;;18.55;12.13;;;-3.50;98.00;;;;;;5079966;28;20071;-64
2023/04/05 06:01:05;;;;;;;17.02;11.60;;;-3.30;98.00;;;;;;5077412;28;20025;-64
2023/04/05 06:03:32;;;;;;;20.02;11.00;;;-3.20;98.00;;;;;;5080795;28;20020;-65
2023/04/05 06:05:58;;;;;;;18.98;12.50;;;-3.00;98.00;;;;;;5085297;28;20367;-64
2023/04/05 06:08:26;;;;;;;17.35;10.93;;;-2.90;98.00;;;;;;5085598;28;20035;-64
2023/04/05 06:10:53;;;;;;;20.42;11.38;;;-2.70;98.00;;;;;;5081738;28;20020;-65
2023/04/05 06:13:19;;;;;;;13.25;10.35;;;-2.50;98.00;;;;;;5080154;28;20078;-65
2023/04/05 06:15:46;;;;;;;14.20;9.15;;;-2.30;98.00;;;;;;5083613;28;20313;-65
2023/04/05 06:18:12;;;;;;;12.57;8.85;;;-1.80;97.90;;;;;;5086399;28;20063;-65
2023/04/05 06:20:39;;;;;;;14.35;7.90;;;-1.20;95.90;;;;;;5086864;28;20060;-65
2023/04/05 06:23:06;;;;;;;12.05;7.93;;;-0.50;94.30;;;;;;5082066;28;20070;-64
2023/04/05 06:25:32;;;;;;;16.25;10.18;;;0.20;91.10;;;;;;5087534;28;20028;-65
2023/04/05 06:27:57;;;;;;;13.23;9.30;;;0.80;88.30;;;;;;5073684;28;20029;-64
2023/04/05 06:30:23;;;;;;;12.35;8.52;;;1.00;86.90;;;;;;5075511;28;20034;-64
2023/04/05 06:32:53;;;;;;;12.45;9.10;;;0.80;87.30;;;;;;5078415;28;20104;-64
2023/04/05 06:35:20;;;;;;;12.68;8.57;;;0.70;87.20;;;;;;5075965;28;20028;-64
2023/04/05 06:37:45;;;;;;;14.98;9.23;;;0.50;86.60;;;;;;5090370;28;20031;-64
2023/04/05 06:40:11;;;;;;;13.15;8.50;;;0.40;86.90;;;;;;5078479;28;20024;-64
2023/04/05 06:42:37;;;;;;;19.25;11.07;;;0.30;87.50;;;;;;5076078;28;20103;-64
2023/04/05 06:45:03;;;;;;;21.95;11.68;;;0.30;87.60;;;;;;5081987;28;20723;-65
2023/04/05 06:47:32;;;;;;;32.78;16.38;;;0.30;86.90;;;;;;5074899;28;20032;-64
2023/04/05 06:49:57;;;;;;;28.65;17.17;;;0.30;85.90;;;;;;5078304;28;20032;-64
2023/04/05 06:52:23;;;;;;;20.38;12.90;;;0.30;85.60;;;;;;5093575;28;20077;-63
2023/04/05 06:54:48;;;;;;;18.95;12.13;;;0.40;85.20;;;;;;5093775;28;20103;-64
2023/04/05 06:57:14;;;;;;;15.38;10.45;;;0.30;85.20;;;;;;5089776;28;20425;-63
2023/04/05 06:59:40;;;;;;;15.68;10.02;;;0.40;85.30;;;;;;5088219;28;20114;-63
2023/04/05 07:02:06;;;;;;;14.73;9.50;;;0.60;85.30;;;;;;5077750;28;20028;-63
2023/04/05 07:04:35;;;;;;;17.55;11.48;;;0.70;84.90;;;;;;5075520;28;20082;-65
2023/04/05 07:07:05;;;;;;;17.90;10.43;;;0.80;84.60;;;;;;5090610;28;20413;-65
2023/04/05 07:09:34;;;;;;;13.20;9.55;;;0.90;84.20;;;;;;5071030;28;20029;-65
2023/04/05 07:12:03;;;;;;;14.48;7.65;;;1.10;84.20;;;;;;5084402;28;20024;-64
2023/04/05 07:14:30;;;;;;;13.55;7.60;;;1.30;81.80;;;;;;5074780;28;20016;-65
2023/04/05 07:16:56;;;;;;;17.23;7.68;;;1.50;80.60;;;;;;5080298;28;20321;-64
2023/04/05 07:19:21;;;;;;;17.23;9.15;;;1.70;79.90;;;;;;5075141;28;20029;-64
2023/04/05 07:21:48;;;;;;;14.25;9.07;;;1.80;79.50;;;;;;5095709;28;20036;-64
2023/04/05 07:24:13;;;;;;;15.70;8.80;;;2.00;79.20;;;;;;5093752;28;20082;-64
2023/04/05 07:26:39;;;;;;;13.35;8.82;;;2.00;80.10;;;;;;5062349;28;20036;-64
2023/04/05 07:29:06;;;;;;;14.05;8.85;;;2.00;79.80;;;;;;5062935;28;20139;-64
2023/04/05 07:31:31;;;;;;;15.88;9.43;;;2.00;79.90;;;;;;5085172;28;20024;-64
2023/04/05 07:33:58;;;;;;;15.80;8.68;;;2.20;81.40;;;;;;5075655;28;20097;-63
2023/04/05 07:36:26;;;;;;;15.20;8.55;;;2.30;81.30;;;;;;5068188;28;20037;-64
2023/04/05 07:38:55;;;;;;;12.60;7.75;;;2.40;78.70;;;;;;5060938;28;20032;-64
2023/04/05 07:41:22;;;;;;;13.60;8.68;;;2.40;77.50;;;;;;5062580;28;20037;-64
2023/04/05 07:43:48;;;;;;;14.57;8.65;;;2.40;78.30;;;;;;5060291;28;20028;-63
2023/04/05 07:46:14;;;;;;;14.93;8.35;;;2.60;78.00;;;;;;5062953;28;20385;-64
2023/04/05 07:48:40;;;;;;;13.32;8.32;;;2.70;77.90;;;;;;5087480;28;20103;-64
2023/04/05 07:51:07;;;;;;;15.85;8.75;;;2.70;78.20;;;;;;5075139;28;20028;-64
2023/04/05 07:53:33;;;;;;;12.70;9.25;;;2.80;78.60;;;;;;5085425;28;20024;-64
2023/04/05 07:56:03;;;;;;;14.75;8.93;;;2.80;79.30;;;;;;5095663;28;20024;-64
2023/04/05 07:58:29;;;;;;;12.80;8.98;;;2.90;79.70;;;;;;5092310;28;20063;-63
2023/04/05 08:01:02;;;;;;;14.02;8.52;;;3.10;78.90;;;;;;5075483;28;20087;-64
2023/04/05 08:03:28;;;;;;;13.57;9.55;;;3.00;77.80;;;;;;5075593;28;20063;-64
2023/04/05 08:05:54;;;;;;;13.95;8.75;;;3.20;79.10;;;;;;5078581;28;20024;-63
2023/04/05 08:08:20;;;;;;;12.85;8.50;;;3.50;77.90;;;;;;5075426;28;20105;-64
2023/04/05 08:10:45;;;;;;;18.38;10.50;;;4.00;76.60;;;;;;5075528;28;20056;-64
2023/04/05 08:13:11;;;;;;;11.65;7.55;;;4.80;74.90;;;;;;5074227;28;20150;-64
2023/04/05 08:15:40;;;;;;;11.00;7.43;;;6.00;73.20;;;;;;5087811;28;20037;-63
2023/04/05 08:18:05;;;;;;;15.32;10.20;;;6.90;70.10;;;;;;5079154;28;20025;-64
2023/04/05 08:20:31;;;;;;;19.45;10.15;;;7.30;69.00;;;;;;5080054;28;20024;-64
2023/04/05 08:22:56;;;;;;;12.63;8.82;;;7.00;69.00;;;;;;5090935;28;20028;-64
2023/04/05 08:25:22;;;;;;;14.48;8.20;;;7.40;69.90;;;;;;5090364;28;20302;-64
2023/04/05 08:27:48;;;;;;;12.95;7.95;;;7.80;68.90;;;;;;5085145;28;20027;-64
2023/04/05 08:30:14;;;;;;;11.75;7.50;;;8.70;66.80;;;;;;5086389;28;20041;-63
2023/04/05 08:32:39;;;;;;;11.05;8.23;;;9.20;64.90;;;;;;5088800;28;20085;-64
2023/04/05 08:35:05;;;;;;;11.15;7.07;;;9.60;64.80;;;;;;5083893;28;20021;-64
2023/04/05 08:37:34;;;;;;;12.05;7.75;;;9.90;63.00;;;;;;5088679;28;20473;-63
2023/04/05 08:40:00;;;;;;;10.48;6.60;;;9.60;62.80;;;;;;5080067;28;20094;-64
2023/04/05 08:42:32;;;;;;;11.88;7.72;;;9.30;62.90;;;;;;5079519;28;20082;-64
2023/04/05 08:45:02;;;;;;;10.23;6.30;;;9.40;63.70;;;;;;5077178;28;20135;-64
2023/04/05 08:47:28;;;;;;;22.13;13.82;;;9.20;61.90;;;;;;5084747;28;20103;-64
2023/04/05 08:49:54;;;;;;;17.75;9.60;;;8.50;63.50;;;;;;5080668;28;20069;-64
2023/04/05 08:52:20;;;;;;;18.88;10.13;;;8.30;63.80;;;;;;5080793;28;20028;-64
2023/04/05 08:54:46;;;;;;;10.85;7.43;;;8.10;64.40;;;;;;5076940;28;20372;-64
2023/04/05 08:57:12;;;;;;;11.48;6.55;;;7.70;63.00;;;;;;5077833;28;20091;-64
2023/04/05 08:59:41;;;;;;;8.93;6.35;;;7.80;63.40;;;;;;5077058;28;20329;-64
2023/04/05 09:02:15;;;;;;;11.23;6.97;;;8.20;63.20;;;;;;5087700;28;20027;-64
2023/04/05 09:04:46;;;;;;;9.50;5.90;;;8.60;62.00;;;;;;5078210;28;20417;-64
2023/04/05 09:07:13;;;;;;;10.50;6.50;;;8.80;60.70;;;;;;5076830;28;20025;-64
2023/04/05 09:09:41;;;;;;;11.95;7.40;;;9.10;61.20;;;;;;5082922;28;20094;-64
2023/04/05 09:12:07;;;;;;;12.05;7.32;;;9.00;61.60;;;;;;5097047;28;20020;-64
2023/04/05 09:14:37;;;;;;;12.52;6.53;;;8.80;60.50;;;;;;5076276;28;20078;-64
2023/04/05 09:17:03;;;;;;;8.88;6.40;;;8.60;60.10;;;;;;5084849;28;20047;-64
2023/04/05 09:19:29;;;;;;;10.05;6.75;;;8.80;60.10;;;;;;5087975;28;20077;-64
2023/04/05 09:22:04;;;;;;;11.10;6.45;;;9.30;61.40;;;;;;5084559;28;20338;-64
2023/04/05 09:24:33;;;;;;;9.63;6.25;;;9.90;57.80;;;;;;5080043;28;20029;-65
2023/04/05 09:27:06;;;;;;;10.35;6.78;;;9.70;58.90;;;;;;5077776;28;20448;-64
2023/04/05 09:29:31;;;;;;;9.23;6.68;;;10.00;57.60;;;;;;5092153;28;20057;-65
2023/04/05 09:32:01;;;;;;;11.63;7.40;;;9.40;58.30;;;;;;5096788;28;20104;-65
2023/04/05 09:34:30;;;;;;;12.43;7.35;;;9.50;59.10;;;;;;5092078;28;20067;-65
2023/04/05 09:36:55;;;;;;;9.77;6.95;;;9.20;58.70;;;;;;5077091;28;20059;-65
2023/04/05 09:39:28;;;;;;;10.57;7.05;;;9.30;60.20;;;;;;5079303;28;20087;-65
2023/04/05 09:42:06;;;;;;;9.98;6.82;;;10.10;58.30;;;;;;5076541;28;20024;-65
2023/04/05 09:44:48;;;;;;;10.48;6.50;;;10.30;57.50;;;;;;5085318;28;20019;-66
2023/04/05 09:47:16;;;;;;;11.48;6.47;;;10.30;58.30;;;;;;5078951;28;20031;-65
2023/04/05 09:49:43;;;;;;;13.43;7.25;;;10.90;58.10;;;;;;5082911;28;20036;-65
2023/04/05 09:52:30;;;;;;;11.07;6.97;;;11.00;57.30;;;;;;5075614;28;20553;-65
2023/04/05 09:54:58;;;;;;;9.40;6.55;;;10.70;57.40;;;;;;5081567;28;20089;-65
2023/04/05 09:57:26;;;;;;;9.80;6.95;;;10.40;56.90;;;;;;5082278;28;20070;-65
2023/04/05 09:59:52;;;;;;;8.77;6.50;;;9.90;57.40;;;;;;5084614;28;20035;-66
2023/04/05 10:02:18;;;;;;;12.15;7.53;;;9.60;59.10;;;;;;5076763;28;20028;-66
2023/04/05 10:04:45;;;;;;;11.93;7.45;;;9.80;59.10;;;;;;5074833;28;20145;-67
2023/04/05 10:07:16;;;;;;;10.07;7.22;;;10.00;58.10;;;;;;5079705;28;20021;-66
2023/04/05 10:09:43;;;;;;;13.23;7.43;;;9.70;57.50;;;;;;5083012;28;20020;-66
2023/04/05 10:12:11;;;;;;;13.07;7.07;;;9.60;59.00;;;;;;5084232;28;20050;-66
2023/04/05 10:14:37;;;;;;;11.27;7.18;;;9.50;59.20;;;;;;5081897;28;20549;-66
2023/04/05 10:17:11;;;;;;;13.13;7.97;;;9.90;58.80;;;;;;5088115;28;20037;-66
2023/04/05 10:19:55;;;;;;;11.25;7.43;;;9.70;59.90;;;;;;5083279;28;20032;-66
2023/04/05 10:22:35;;;;;;;10.13;7.05;;;10.50;61.20;;;;;;5096981;28;20024;-66
2023/04/05 10:25:18;;;;;;;12.38;7.88;;;11.50;55.80;;;;;;5095220;28;20337;-66
2023/04/05 10:27:52;;;;;;;10.98;7.40;;;11.60;55.10;;;;;;5082452;28;20051;-66
2023/04/05 10:30:18;;;;;;;10.40;7.13;;;11.70;55.80;;;;;;5083479;28;20078;-66
2023/04/05 10:33:01;;;;;;;10.98;6.25;;;11.50;53.70;;;;;;5076506;28;20063;-66
2023/04/05 10:35:33;;;;;;;9.98;6.70;;;11.30;57.40;;;;;;5076414;28;20040;-66
2023/04/05 10:38:10;;;;;;;13.07;6.25;;;11.70;56.20;;;;;;5077879;28;20100;-66
2023/04/05 10:40:36;;;;;;;9.90;6.63;;;11.90;56.00;;;;;;5076163;28;20029;-66
2023/04/05 10:43:06;;;;;;;11.13;6.93;;;12.00;54.10;;;;;;5084421;28;20032;-65
2023/04/05 10:45:35;;;;;;;11.82;7.70;;;11.50;53.90;;;;;;5076376;28;20021;-66
2023/04/05 10:48:17;;;;;;;10.43;7.15;;;11.40;56.90;;;;;;5076368;28;20020;-66
2023/04/05 10:50:46;;;;;;;10.77;7.50;;;11.00;56.80;;;;;;5076281;28;20025;-66
2023/04/05 10:53:12;;;;;;;11.02;7.18;;;11.00;56.60;;;;;;5078354;28;20141;-66
2023/04/05 10:55:38;;;;;;;12.68;6.90;;;11.30;54.80;;;;;;5094874;28;20024;-66
2023/04/05 10:58:04;;;;;;;10.32;7.20;;;12.00;54.60;;;;;;5074422;28;20044;-66
2023/04/05 11:00:30;;;;;;;10.90;7.03;;;11.90;54.80;;;;;;5098164;28;20589;-66
2023/04/05 11:02:56;;;;;;;11.48;8.05;;;11.60;55.70;;;;;;5076771;28;20029;-66
2023/04/05 11:05:32;;;;;;;12.30;7.70;;;11.20;54.90;;;;;;5076234;28;20020;-65
2023/04/05 11:08:06;;;;;;;11.23;7.78;;;10.40;55.50;;;;;;5075847;28;20016;-66
2023/04/05 11:10:34;;;;;;;10.18;6.65;;;9.60;57.00;;;;;;5087634;28;20329;-66
2023/04/05 11:12:59;;;;;;;17.05;8.32;;;9.70;59.40;;;;;;5094971;28;20027;-66
2023/04/05 11:15:27;;;;;;;12.70;7.57;;;10.50;57.90;;;;;;5080861;28;20021;-65
2023/04/05 11:18:14;;;;;;;12.95;7.30;;;10.10;56.80;;;;;;5076053;28;20024;-66
2023/04/05 11:20:46;;;;;;;9.85;6.85;;;10.30;57.70;;;;;;5076404;28;20028;-66
2023/04/05 11:23:14;;;;;;;11.13;7.82;;;10.20;56.90;;;;;;5075712;28;20306;-66
2023/04/05 11:25:45;;;;;;;12.77;8.52;;;10.30;58.30;;;;;;5090900;28;20024;-66
2023/04/05 11:28:28;;;;;;;11.55;8.38;;;10.60;58.70;;;;;;5093948;28;20035;-66
2023/04/05 11:30:57;;;;;;;10.68;7.20;;;10.80;59.20;;;;;;5077187;28;20029;-66
2023/04/05 11:33:55;;;;;;;11.60;7.47;;;11.00;57.50;;;;;;5075804;28;20116;-66
2023/04/05 11:36:44;;;;;;;13.63;8.52;;;10.00;55.50;;;;;;5075885;28;20029;-66
2023/04/05 11:39:21;;;;;;;11.00;8.00;;;8.50;58.40;;;;;;5076641;28;20033;-65
2023/04/05 11:42:23;;;;;;;10.23;7.40;;;8.30;61.00;;;;;;5076226;28;20070;-66
2023/04/05 11:44:51;;;;;;;13.77;8.30;;;8.70;61.60;;;;;;5070523;28;20063;-66
2023/04/05 11:47:20;;;;;;;12.10;8.52;;;9.40;60.40;;;;;;5075022;28;20041;-66
2023/04/05 11:49:49;;;;;;;11.85;8.50;;;9.30;59.90;;;;;;5077279;28;20369;-66
2023/04/05 11:52:17;;;;;;;13.88;8.70;;;9.50;60.70;;;;;;5095601;28;20024;-65
2023/04/05 11:54:47;;;;;;;15.75;9.00;;;9.80;61.10;;;;;;5098213;28;20080;-65
2023/04/05 11:57:21;;;;;;;11.98;7.97;;;9.60;59.20;;;;;;5082400;28;20127;-66
2023/04/05 11:59:50;;;;;;;13.23;8.55;;;9.40;60.20;;;;;;5089020;28;20031;-66
2023/04/05 12:02:16;;;;;;;11.73;8.07;;;9.70;60.70;;;;;;5096146;28;20039;-66
2023/04/05 12:04:41;;;;;;;11.70;8.18;;;9.90;60.40;;;;;;5086348;28;20024;-66
2023/04/05 12:07:15;;;;;;;11.82;8.57;;;10.30;58.90;;;;;;5097270;28;20310;-66
2023/04/05 12:10:01;;;;;;;22.58;13.55;;;10.20;58.80;;;;;;5092879;28;20117;-66
2023/04/05 12:12:38;;;;;;;15.93;9.18;;;9.90;58.40;;;;;;5079437;28;20078;-66
2023/04/05 12:15:07;;;;;;;11.73;7.78;;;10.20;58.90;;;;;;5086305;28;20039;-66
2023/04/05 12:17:49;;;;;;;12.75;8.75;;;10.80;58.30;;;;;;5094307;28;20093;-65
2023/04/05 12:20:18;;;;;;;10.88;7.63;;;11.00;56.60;;;;;;5087536;28;20081;-66
2023/04/05 12:22:47;;;;;;;11.32;7.93;;;10.70;58.80;;;;;;5089649;28;20028;-66
2023/04/05 12:25:13;;;;;;;10.68;7.38;;;11.00;59.20;;;;;;5097129;28;20028;-66
2023/04/05 12:27:39;;;;;;;12.85;8.10;;;11.30;56.60;;;;;;5094873;28;20320;-66
2023/04/05 12:30:05;;;;;;;13.05;7.88;;;11.10;56.10;;;;;;5085404;28;20101;-66
2023/04/05 12:32:36;;;;;;;10.82;7.82;;;10.90;57.50;;;;;;5097762;28;20025;-66
2023/04/05 12:35:05;;;;;;;12.30;7.70;;;10.80;58.60;;;;;;5096927;28;20024;-66
2023/04/05 12:37:33;;;;;;;18.50;10.35;;;10.80;57.10;;;;;;5090266;28;20024;-66
2023/04/05 12:40:02;;;;;;;13.25;9.02;;;11.10;58.70;;;;;;5080741;28;20036;-65
2023/04/05 12:42:34;;;;;;;11.52;7.55;;;11.50;57.70;;;;;;5078631;28;20420;-64